Terminal Aerodrome Forecast
Issued by NWS Twin Cities, MN

Home | Current Version | Previous Version | Graphics & Text | Print | Product List | Glossary On
Versions: 1 2 3 4 5 6 7 8 9 10 11 12 13 14 15 16 17 18 19 20 21 22 23 24 25 26
411
FTUS43 KMPX 262003 AAB
TAFMSP
TAF AMD
KMSP 262003Z 2620/2724 36005KT P6SM OVC012
     FM270200 35004KT P6SM OVC008
     FM271400 02005KT P6SM OVC012
     FM271700 03005KT P6SM OVC018
     FM272100 04005KT P6SM SCT025 BKN040=

USA.gov is the U.S. government's official web portal to all federal, state and local government web resources and services.